createdAt,value
2019-05-11T00:01:22.133Z,13.20
2019-05-11T00:03:51.041Z,13.20
2019-05-11T00:06:22.015Z,13.20
2019-05-11T00:08:50.858Z,13.20
2019-05-11T00:11:19.693Z,13.10
2019-05-11T00:13:48.538Z,13.20
2019-05-11T00:16:19.179Z,13.20
2019-05-11T00:18:47.810Z,13.20
2019-05-11T00:21:16.728Z,13.20
2019-05-11T00:23:45.566Z,13.20
2019-05-11T00:26:14.411Z,13.20
2019-05-11T00:28:43.256Z,13.10
2019-05-11T00:31:15.058Z,13.10
2019-05-11T00:33:43.966Z,13.10
2019-05-11T00:36:12.816Z,13.00
2019-05-11T00:38:41.700Z,13.00
2019-05-11T00:41:10.670Z,13.00
2019-05-11T00:43:39.520Z,13.00
2019-05-11T00:46:08.363Z,13.00
2019-05-11T00:48:37.277Z,13.00
2019-05-11T00:51:06.109Z,13.00
2019-05-11T00:53:35.061Z,13.00
2019-05-11T00:56:03.961Z,12.90
2019-05-11T00:58:34.796Z,13.00
2019-05-11T01:01:03.388Z,13.00
2019-05-11T01:03:32.242Z,13.00
2019-05-11T01:06:01.143Z,13.10
2019-05-11T01:08:30.004Z,13.00
2019-05-11T01:10:58.904Z,13.00
2019-05-11T01:13:27.741Z,13.00
2019-05-11T01:15:56.296Z,13.00
2019-05-11T01:18:25.189Z,13.00
2019-05-11T01:20:54.125Z,13.00
2019-05-11T01:23:23.018Z,13.00
2019-05-11T01:25:51.990Z,13.00
2019-05-11T01:28:20.909Z,12.90
2019-05-11T01:30:49.753Z,13.00
2019-05-11T01:33:18.570Z,12.90
2019-05-11T01:35:47.055Z,13.00
2019-05-11T01:38:15.960Z,12.90
2019-05-11T01:40:57.756Z,12.80
2019-05-11T01:43:15.358Z,12.80
2019-05-11T01:45:44.249Z,12.60
2019-05-11T01:48:13.093Z,12.70
2019-05-11T01:50:41.962Z,12.90
2019-05-11T01:53:10.877Z,12.80
2019-05-11T01:55:39.754Z,12.80
2019-05-11T01:58:08.547Z,12.80
2019-05-11T02:00:37.349Z,12.80
2019-05-11T02:03:06.210Z,12.80
2019-05-11T02:05:35.150Z,12.90
2019-05-11T02:08:04.100Z,12.80
2019-05-11T02:10:33.155Z,12.70
2019-05-11T02:13:03.311Z,12.60
2019-05-11T02:15:31.815Z,12.60
2019-05-11T02:18:00.602Z,12.70
2019-05-11T02:20:29.572Z,12.70
2019-05-11T02:22:58.557Z,12.80
2019-05-11T02:25:27.378Z,12.90
2019-05-11T02:27:56.174Z,13.00
2019-05-11T02:30:24.979Z,13.00
2019-05-11T02:32:53.787Z,13.00
2019-05-11T02:35:22.282Z,12.90
2019-05-11T02:37:51.165Z,12.90
2019-05-11T02:40:20.211Z,12.90
2019-05-11T02:42:49.002Z,12.90
2019-05-11T02:45:20.879Z,13.00
2019-05-11T02:47:49.681Z,13.00
2019-05-11T02:50:18.522Z,13.00
2019-05-11T02:52:48.223Z,13.00
2019-05-11T02:55:17.044Z,13.00
2019-05-11T02:57:45.909Z,13.00
2019-05-11T03:00:16.113Z,13.10
2019-05-11T03:02:44.595Z,13.10
2019-05-11T03:05:13.543Z,13.20
2019-05-11T03:07:42.459Z,13.20
2019-05-11T03:10:11.311Z,13.20
2019-05-11T03:12:40.107Z,13.20
2019-05-11T03:15:09.269Z,13.30
2019-05-11T03:17:38.077Z,13.30
2019-05-11T03:20:07.698Z,13.30
2019-05-11T03:22:38.465Z,13.30
2019-05-11T03:25:07.076Z,13.30
2019-05-11T03:27:35.908Z,13.30
2019-05-11T03:30:07.323Z,13.30
2019-05-11T03:32:36.194Z,13.30
2019-05-11T03:35:05.745Z,13.40
2019-05-11T03:37:41.941Z,13.40
2019-05-11T03:40:10.806Z,13.40
2019-05-11T03:42:39.618Z,13.40
2019-05-11T03:45:08.668Z,13.40
2019-05-11T03:47:37.499Z,13.40
2019-05-11T03:50:07.745Z,13.40
2019-05-11T03:52:36.555Z,13.40
2019-05-11T03:55:06.423Z,13.40
2019-05-11T03:57:35.225Z,13.40
2019-05-11T04:00:05.709Z,13.40
2019-05-11T04:02:34.158Z,13.50
2019-05-11T04:05:03.004Z,13.50
2019-05-11T04:07:31.814Z,13.50
2019-05-11T04:10:00.608Z,13.50
2019-05-11T04:12:34.606Z,13.60
2019-05-11T04:14:59.903Z,13.60
2019-05-11T04:17:28.712Z,13.60
2019-05-11T04:19:57.521Z,13.60
2019-05-11T04:22:25.958Z,13.60
2019-05-11T04:24:54.766Z,13.60
2019-05-11T04:27:23.571Z,13.60
2019-05-11T04:29:52.359Z,13.60
2019-05-11T04:32:21.157Z,13.60
2019-05-11T04:34:50.213Z,13.60
2019-05-11T04:37:19.116Z,13.60
2019-05-11T04:39:47.938Z,13.60
2019-05-11T04:42:16.745Z,13.60
2019-05-11T04:44:45.540Z,13.60
2019-05-11T04:47:15.942Z,13.60
2019-05-11T04:49:46.087Z,13.60
2019-05-11T04:52:14.979Z,13.60
2019-05-11T04:54:45.113Z,13.60
2019-05-11T04:57:15.456Z,13.60
2019-05-11T04:59:44.062Z,13.60
2019-05-11T05:02:14.251Z,13.60
2019-05-11T05:04:45.322Z,13.60
2019-05-11T05:07:16.596Z,13.60
2019-05-11T05:09:44.867Z,13.60
2019-05-11T05:12:15.640Z,13.60
2019-05-11T05:14:44.399Z,13.70
2019-05-11T05:17:13.259Z,13.70
2019-05-11T05:19:44.033Z,13.70
2019-05-11T05:22:12.901Z,13.70
2019-05-11T05:24:41.769Z,13.70
2019-05-11T05:27:10.684Z,13.70
2019-05-11T05:29:42.134Z,13.70
2019-05-11T05:32:10.991Z,13.70
2019-05-11T05:34:39.832Z,13.70
2019-05-11T05:37:10.015Z,13.80
2019-05-11T05:39:38.853Z,13.80
2019-05-11T05:42:08.960Z,13.80
2019-05-11T05:44:46.610Z,13.80
2019-05-11T05:47:15.836Z,13.80
2019-05-11T05:49:44.657Z,13.80
2019-05-11T05:52:37.494Z,13.80
2019-05-11T05:55:07.194Z,13.80
2019-05-11T05:57:36.119Z,13.80
2019-05-11T06:00:06.135Z,13.80
2019-05-11T06:02:35.017Z,13.80
2019-05-11T06:05:06.174Z,13.80
2019-05-11T06:07:35.075Z,13.90
2019-05-11T06:10:05.548Z,13.90
2019-05-11T06:12:34.352Z,14.00
2019-05-11T06:15:03.265Z,14.00
2019-05-11T06:17:32.094Z,14.00
2019-05-11T06:20:01.145Z,14.10
2019-05-11T06:22:30.042Z,14.10
2019-05-11T06:24:58.947Z,14.10
2019-05-11T06:27:27.748Z,14.10
2019-05-11T06:29:56.589Z,14.20
2019-05-11T06:32:25.375Z,14.20
2019-05-11T06:34:53.843Z,14.20
2019-05-11T06:37:22.677Z,14.20
2019-05-11T06:39:51.546Z,14.20
2019-05-11T06:42:20.350Z,14.30
2019-05-11T06:44:49.210Z,14.30
2019-05-11T06:47:18.003Z,14.30
2019-05-11T06:49:48.289Z,14.40
2019-05-11T06:52:17.138Z,14.40
2019-05-11T06:54:45.617Z,14.50
2019-05-11T06:57:14.476Z,14.50
2019-05-11T06:59:43.312Z,14.60
2019-05-11T07:02:12.442Z,14.60
2019-05-11T07:04:41.365Z,14.60
2019-05-11T07:07:10.192Z,14.70
2019-05-11T07:09:39.012Z,14.70
2019-05-11T07:12:07.924Z,14.80
2019-05-11T07:14:36.476Z,14.80
2019-05-11T07:17:15.048Z,14.80
2019-05-11T07:19:47.356Z,14.90
2019-05-11T07:22:14.740Z,15.00
2019-05-11T07:24:43.584Z,15.00
2019-05-11T07:27:12.431Z,15.10
2019-05-11T07:29:41.238Z,15.20
2019-05-11T07:32:22.428Z,15.20
2019-05-11T07:34:42.719Z,15.20
2019-05-11T07:37:11.588Z,15.20
2019-05-11T07:39:40.439Z,15.20
2019-05-11T07:42:09.237Z,15.20
2019-05-11T07:44:41.478Z,15.20
2019-05-11T07:47:08.710Z,15.20
2019-05-11T07:49:39.544Z,15.20
2019-05-11T07:52:09.414Z,15.20
2019-05-11T07:54:40.468Z,15.20
2019-05-11T07:57:09.320Z,15.30
2019-05-11T07:59:38.328Z,15.30
2019-05-11T08:02:08.887Z,15.30
2019-05-11T08:04:38.020Z,15.30
2019-05-11T08:07:07.700Z,15.40
2019-05-11T08:09:41.163Z,15.40
2019-05-11T08:12:08.905Z,15.50
2019-05-11T08:14:55.999Z,15.60
2019-05-11T08:17:09.145Z,15.60
2019-05-11T08:19:39.263Z,15.70
2019-05-11T08:22:08.810Z,15.70
2019-05-11T08:24:38.984Z,15.80
2019-05-11T08:27:09.025Z,15.80
2019-05-11T08:29:38.505Z,15.80
2019-05-11T08:32:08.494Z,15.90
2019-05-11T08:34:39.849Z,15.90
2019-05-11T08:37:08.851Z,15.90
2019-05-11T08:39:38.049Z,15.90
2019-05-11T08:42:08.743Z,16.00
2019-05-11T08:44:38.097Z,16.00
2019-05-11T08:47:08.643Z,16.10
2019-05-11T08:49:38.836Z,16.10
2019-05-11T08:52:08.214Z,16.20
2019-05-11T08:54:38.178Z,16.20
2019-05-11T08:57:08.106Z,16.20
2019-05-11T08:59:38.145Z,16.20
2019-05-11T09:02:08.128Z,16.20
2019-05-11T09:04:41.705Z,16.20
2019-05-11T09:07:08.078Z,16.30
2019-05-11T09:09:38.028Z,16.30
2019-05-11T09:12:07.818Z,16.30
2019-05-11T09:14:38.748Z,16.40
2019-05-11T09:17:07.917Z,16.40
2019-05-11T09:19:38.839Z,16.40
2019-05-11T09:22:08.290Z,16.50
2019-05-11T09:24:38.610Z,16.50
2019-05-11T09:27:18.393Z,16.50
2019-05-11T09:29:48.010Z,16.60
2019-05-11T09:32:18.154Z,16.60
2019-05-11T09:34:48.824Z,16.70
2019-05-11T09:37:18.367Z,16.70
2019-05-11T09:39:47.939Z,16.70
2019-05-11T09:42:17.894Z,16.70
2019-05-11T09:44:48.530Z,16.70
2019-05-11T09:47:19.132Z,16.80
2019-05-11T09:49:55.365Z,16.90
2019-05-11T09:52:24.235Z,17.00
2019-05-11T09:54:53.072Z,17.10
2019-05-11T09:57:21.926Z,17.10
2019-05-11T09:59:50.836Z,17.10
2019-05-11T10:02:21.155Z,17.20
2019-05-11T10:04:50.277Z,17.30
2019-05-11T10:07:18.758Z,17.30
2019-05-11T10:09:47.949Z,17.30
2019-05-11T10:12:18.081Z,17.20
2019-05-11T10:14:48.623Z,17.40
2019-05-11T10:17:18.207Z,17.40
2019-05-11T10:19:49.553Z,17.50
2019-05-11T10:22:18.571Z,17.70
2019-05-11T10:24:47.803Z,17.80
2019-05-11T10:27:19.032Z,17.90
2019-05-11T10:29:48.528Z,18.10
2019-05-11T10:32:18.337Z,18.30
2019-05-11T10:34:47.785Z,18.10
2019-05-11T10:37:17.714Z,18.30
2019-05-11T10:39:48.743Z,18.30
2019-05-11T10:42:18.007Z,18.60
2019-05-11T10:44:47.874Z,18.80
2019-05-11T10:47:18.406Z,18.50
2019-05-11T10:49:49.114Z,18.60
2019-05-11T10:52:18.158Z,18.60
2019-05-11T10:54:47.820Z,18.50
2019-05-11T10:57:18.876Z,18.50
2019-05-11T10:59:48.904Z,18.40
2019-05-11T11:02:18.490Z,18.50
2019-05-11T11:04:48.574Z,18.50
2019-05-11T11:07:19.458Z,18.50
2019-05-11T11:09:49.215Z,18.40
2019-05-11T11:12:19.304Z,18.40
2019-05-11T11:14:49.150Z,18.60
2019-05-11T11:17:19.183Z,18.70
2019-05-11T11:19:48.777Z,18.70
2019-05-11T11:22:35.941Z,18.60
2019-05-11T11:24:48.302Z,18.40
2019-05-11T11:27:18.506Z,18.30
2019-05-11T11:29:47.710Z,18.00
2019-05-11T11:32:18.424Z,17.90
2019-05-11T11:34:48.478Z,17.90
2019-05-11T11:37:18.989Z,17.80
2019-05-11T11:39:47.885Z,18.00
2019-05-11T11:42:17.866Z,17.90
2019-05-11T11:44:48.445Z,17.70
2019-05-11T11:47:21.394Z,17.90
2019-05-11T11:49:47.831Z,18.20
2019-05-11T11:52:18.817Z,18.50
2019-05-11T11:54:47.883Z,18.60
2019-05-11T11:57:18.230Z,18.40
2019-05-11T11:59:48.178Z,18.10
2019-05-11T12:02:18.881Z,18.10
2019-05-11T12:04:49.130Z,18.30
2019-05-11T12:07:18.127Z,18.60
2019-05-11T12:09:48.373Z,18.70
2019-05-11T12:12:19.497Z,18.90
2019-05-11T12:14:48.237Z,19.10
2019-05-11T12:17:18.218Z,19.40
2019-05-11T12:19:47.889Z,19.60
2019-05-11T12:22:18.773Z,19.70
2019-05-11T12:24:48.132Z,20.10
2019-05-11T12:27:18.265Z,20.30
2019-05-11T12:29:47.739Z,20.30
2019-05-11T12:32:18.553Z,20.10
2019-05-11T12:34:48.197Z,20.10
2019-05-11T12:37:17.915Z,19.90
2019-05-11T12:39:47.822Z,19.70
2019-05-11T12:42:17.964Z,19.20
2019-05-11T12:44:48.140Z,19.00
2019-05-11T12:47:22.169Z,18.50
2019-05-11T12:49:48.436Z,18.30
2019-05-11T12:52:19.839Z,18.10
2019-05-11T12:54:48.920Z,17.70
2019-05-11T12:57:18.575Z,16.90
2019-05-11T12:59:50.906Z,16.40
2019-05-11T13:02:19.501Z,16.10
2019-05-11T13:04:48.370Z,15.80
2019-05-11T13:07:19.641Z,15.70
2019-05-11T13:09:58.118Z,16.00
2019-05-11T13:12:29.795Z,16.10
2019-05-11T13:14:58.240Z,16.40
2019-05-11T13:17:36.729Z,16.60
2019-05-11T13:19:58.805Z,16.90
2019-05-11T13:22:29.005Z,16.80
2019-05-11T13:24:59.524Z,16.90
2019-05-11T13:27:28.508Z,16.80
2019-05-11T13:29:59.219Z,16.40
2019-05-11T13:32:28.258Z,16.40
2019-05-11T13:34:58.392Z,16.40
2019-05-11T13:37:28.299Z,16.00
2019-05-11T13:39:57.975Z,15.90
2019-05-11T13:42:27.725Z,15.80
2019-05-11T13:44:58.443Z,15.90
2019-05-11T13:47:28.261Z,15.80
2019-05-11T13:49:58.468Z,15.80
2019-05-11T13:52:28.663Z,15.60
2019-05-11T13:54:58.498Z,15.80
2019-05-11T13:57:28.598Z,16.00
2019-05-11T13:59:58.033Z,16.00
2019-05-11T14:02:32.830Z,16.50
2019-05-11T14:05:01.719Z,16.90
2019-05-11T14:07:30.572Z,17.10
2019-05-11T14:09:59.449Z,17.20
2019-05-11T14:12:28.750Z,17.10
2019-05-11T14:14:57.743Z,17.00
2019-05-11T14:17:28.744Z,16.80
2019-05-11T14:19:58.481Z,16.70
2019-05-11T14:22:28.184Z,16.70
2019-05-11T14:24:58.584Z,16.70
2019-05-11T14:27:28.421Z,16.50
2019-05-11T14:29:57.796Z,16.00
2019-05-11T14:32:28.480Z,15.90
2019-05-11T14:34:57.919Z,15.60
2019-05-11T14:37:28.568Z,15.50
2019-05-11T14:39:58.421Z,15.50
2019-05-11T14:42:28.647Z,15.40
2019-05-11T14:44:58.993Z,15.20
2019-05-11T14:47:28.362Z,15.00
2019-05-11T14:49:57.840Z,14.90
2019-05-11T14:52:28.059Z,15.00
2019-05-11T14:54:58.532Z,14.90
2019-05-11T14:57:27.836Z,14.80
2019-05-11T14:59:58.621Z,14.70
2019-05-11T15:02:48.477Z,14.80
2019-05-11T15:05:18.336Z,14.70
2019-05-11T15:07:47.851Z,14.80
2019-05-11T15:10:18.713Z,14.50
2019-05-11T15:12:48.916Z,14.60
2019-05-11T15:15:18.874Z,14.60
2019-05-11T15:17:49.286Z,14.40
2019-05-11T15:20:19.995Z,14.40
2019-05-11T15:22:49.115Z,14.30
2019-05-11T15:25:19.420Z,14.20
2019-05-11T15:27:48.885Z,14.10
2019-05-11T15:30:19.532Z,13.90
2019-05-11T15:32:48.557Z,13.80
2019-05-11T15:35:18.611Z,13.50
2019-05-11T15:37:48.384Z,13.30
2019-05-11T15:40:18.855Z,13.20
2019-05-11T15:42:48.663Z,13.00
2019-05-11T15:45:19.786Z,13.00
2019-05-11T15:47:49.685Z,12.80
2019-05-11T15:50:19.526Z,12.90
2019-05-11T15:52:49.014Z,12.80
2019-05-11T15:55:21.104Z,12.70
2019-05-11T15:57:49.992Z,12.60
2019-05-11T16:00:19.109Z,12.50
2019-05-11T16:02:49.332Z,12.30
2019-05-11T16:05:18.625Z,12.10
2019-05-11T16:07:49.156Z,12.30
2019-05-11T16:10:18.963Z,11.90
2019-05-11T16:12:48.584Z,12.00
2019-05-11T16:15:19.195Z,11.90
2019-05-11T16:17:48.977Z,11.80
2019-05-11T16:20:19.152Z,11.70
2019-05-11T16:22:48.293Z,11.60
2019-05-11T16:25:19.772Z,11.50
2019-05-11T16:27:50.512Z,11.40
2019-05-11T16:30:21.480Z,11.40
2019-05-11T16:32:50.424Z,11.40
2019-05-11T16:35:19.315Z,11.10
2019-05-11T16:37:48.842Z,10.90
2019-05-11T16:40:20.806Z,10.80
2019-05-11T16:42:50.901Z,10.80
2019-05-11T16:45:23.895Z,10.80
2019-05-11T16:47:51.591Z,10.90
2019-05-11T16:50:20.954Z,11.10
2019-05-11T16:52:49.800Z,10.90
2019-05-11T16:55:18.737Z,10.70
2019-05-11T16:57:48.418Z,10.80
2019-05-11T17:00:18.376Z,10.90
2019-05-11T17:02:49.030Z,10.60
2019-05-11T17:05:26.348Z,10.60
2019-05-11T17:07:48.570Z,10.70
2019-05-11T17:10:18.234Z,10.80
2019-05-11T17:12:48.289Z,10.60
2019-05-11T17:15:19.274Z,10.60
2019-05-11T17:17:50.074Z,10.60
2019-05-11T17:20:19.208Z,10.70
2019-05-11T17:22:48.766Z,10.90
2019-05-11T17:25:19.104Z,10.60
2019-05-11T17:27:50.055Z,10.80
2019-05-11T17:30:19.648Z,10.70
2019-05-11T17:32:49.457Z,10.60
2019-05-11T17:35:18.677Z,10.60
2019-05-11T17:37:48.540Z,10.50
2019-05-11T17:40:22.437Z,10.50
2019-05-11T17:42:48.552Z,10.80
2019-05-11T17:45:18.869Z,10.80
2019-05-11T17:47:47.647Z,10.70
2019-05-11T17:50:19.026Z,10.60
2019-05-11T17:52:47.964Z,10.80
2019-05-11T17:55:18.538Z,10.80
2019-05-11T18:00:19.781Z,10.30
2019-05-11T18:02:49.075Z,10.50
2019-05-11T18:05:20.607Z,10.60
2019-05-11T18:07:49.421Z,10.40
2019-05-11T18:10:18.547Z,10.60
2019-05-11T18:12:48.608Z,10.50
2019-05-11T18:15:18.662Z,10.60
2019-05-11T18:17:48.586Z,10.40
2019-05-11T18:20:21.779Z,10.20
2019-05-11T18:22:50.133Z,10.30
2019-05-11T18:25:19.138Z,10.20
2019-05-11T18:27:48.395Z,10.30
2019-05-11T18:30:18.430Z,10.40
2019-05-11T18:32:49.006Z,10.40
2019-05-11T18:35:19.414Z,10.50
2019-05-11T18:37:48.363Z,10.50
2019-05-11T18:40:18.653Z,10.30
2019-05-11T18:42:48.791Z,10.40
2019-05-11T18:45:18.937Z,10.70
2019-05-11T18:47:49.156Z,10.80
2019-05-11T18:50:29.939Z,10.40
2019-05-11T18:52:49.408Z,10.50
2019-05-11T18:55:18.953Z,10.70
2019-05-11T18:57:48.962Z,10.60
2019-05-11T19:00:19.392Z,10.60
2019-05-11T19:02:49.436Z,10.60
2019-05-11T19:05:18.818Z,10.60
2019-05-11T19:07:48.323Z,10.70
2019-05-11T19:10:17.469Z,10.80
2019-05-11T19:12:48.624Z,10.40
2019-05-11T19:15:18.828Z,10.40
2019-05-11T19:17:49.010Z,10.30
2019-05-11T19:20:18.997Z,10.40
2019-05-11T19:22:47.961Z,10.30
2019-05-11T19:25:18.152Z,10.20
2019-05-11T19:27:50.755Z,10.20
2019-05-11T19:30:24.373Z,10.20
2019-05-11T19:32:53.301Z,10.20
2019-05-11T19:35:22.118Z,10.20
2019-05-11T19:37:50.654Z,10.40
2019-05-11T19:40:20.306Z,10.20
2019-05-11T19:42:59.628Z,10.20
2019-05-11T19:45:33.012Z,10.10
2019-05-11T19:48:02.244Z,10.10
2019-05-11T19:50:34.537Z,10.30
2019-05-11T19:53:03.747Z,10.30
2019-05-11T19:55:34.320Z,10.50
2019-05-11T19:58:03.944Z,10.50
2019-05-11T20:00:39.691Z,10.50
2019-05-11T20:03:23.429Z,10.40
2019-05-11T20:08:59.844Z,10.70
2019-05-11T20:11:27.941Z,10.70
2019-05-11T20:15:19.087Z,10.70
2019-05-11T20:16:37.647Z,10.50
2019-05-11T20:19:18.150Z,10.70
2019-05-11T20:21:48.533Z,10.80
2019-05-11T20:24:25.163Z,10.80
2019-05-11T20:29:50.838Z,10.60
2019-05-11T20:32:18.683Z,10.60
2019-05-11T20:34:49.846Z,10.60
2019-05-11T20:37:20.796Z,10.60
2019-05-11T20:39:50.031Z,10.60
2019-05-11T20:42:29.492Z,10.40
2019-05-11T20:44:50.219Z,10.50
2019-05-11T20:47:19.186Z,10.60
2019-05-11T20:49:48.300Z,10.60
2019-05-11T20:52:18.851Z,10.60
2019-05-11T20:54:47.841Z,10.60
2019-05-11T20:57:17.973Z,10.60
2019-05-11T20:59:48.444Z,10.50
2019-05-11T21:02:18.232Z,10.50
2019-05-11T21:04:49.063Z,10.40
2019-05-11T21:07:19.930Z,10.40
2019-05-11T21:09:49.202Z,10.40
2019-05-11T21:12:32.276Z,10.40
2019-05-11T21:14:51.561Z,10.40
2019-05-11T21:17:21.676Z,10.30
2019-05-11T21:19:51.856Z,10.30
2019-05-11T21:22:22.017Z,10.30
2019-05-11T21:24:50.893Z,10.20
2019-05-11T21:27:21.080Z,10.00
2019-05-11T21:29:51.230Z,10.10
2019-05-11T21:32:20.376Z,10.00
2019-05-11T21:34:50.527Z,10.00
2019-05-11T21:37:20.708Z,9.90
2019-05-11T21:39:49.514Z,10.00
2019-05-11T21:42:18.409Z,9.90
2019-05-11T21:44:47.219Z,9.80
2019-05-11T21:47:18.169Z,9.80
2019-05-11T21:49:48.501Z,9.90
2019-05-11T21:52:18.124Z,9.80
2019-05-11T21:54:48.966Z,9.90
2019-05-11T21:57:18.575Z,9.80
2019-05-11T21:59:48.478Z,9.70
2019-05-11T22:02:18.472Z,9.70
2019-05-11T22:04:48.683Z,9.60
2019-05-11T22:07:17.565Z,10.10
2019-05-11T22:09:46.382Z,10.00
2019-05-11T22:12:15.280Z,10.00
2019-05-11T22:14:44.105Z,9.70
2019-05-11T22:17:13.048Z,9.60
2019-05-11T22:19:41.911Z,9.50
2019-05-11T22:22:21.523Z,9.80
2019-05-11T22:24:41.339Z,10.20
2019-05-11T22:27:10.175Z,10.30
2019-05-11T22:29:39.021Z,10.20
2019-05-11T22:32:07.528Z,9.80
2019-05-11T22:34:37.809Z,9.70
2019-05-11T22:37:08.658Z,9.60
2019-05-11T22:39:37.768Z,9.70
2019-05-11T22:42:08.115Z,9.80
2019-05-11T22:44:38.645Z,9.70
2019-05-11T22:47:08.960Z,9.70
2019-05-11T22:49:39.471Z,9.50
2019-05-11T22:52:08.851Z,9.30
2019-05-11T22:54:38.340Z,9.30
2019-05-11T22:57:08.104Z,9.30
2019-05-11T22:59:38.500Z,9.20
2019-05-11T23:02:07.674Z,9.10
2019-05-11T23:04:38.326Z,9.00
2019-05-11T23:07:07.995Z,9.20
2019-05-11T23:09:38.158Z,9.40
2019-05-11T23:12:09.039Z,9.40
2019-05-11T23:14:37.803Z,9.20
2019-05-11T23:17:08.129Z,9.10
2019-05-11T23:19:38.146Z,8.90
2019-05-11T23:22:08.271Z,9.00
2019-05-11T23:24:37.555Z,9.20
2019-05-11T23:27:08.042Z,9.20
2019-05-11T23:29:38.423Z,9.30
2019-05-11T23:32:08.651Z,9.00
2019-05-11T23:34:38.792Z,9.20
2019-05-11T23:37:08.023Z,9.10
2019-05-11T23:39:38.764Z,8.70
2019-05-11T23:42:08.183Z,8.60
2019-05-11T23:44:38.477Z,8.60
2019-05-11T23:47:07.295Z,8.60
2019-05-11T23:49:36.102Z,8.70
2019-05-11T23:52:04.904Z,8.80
2019-05-11T23:54:33.771Z,8.70
2019-05-11T23:57:02.564Z,8.70
2019-05-11T23:59:31.836Z,8.60
